createdAt,value
2023-03-23T04:14:16.786Z,28.49
2023-03-23T04:18:16.681Z,28.37
2023-03-23T04:22:16.674Z,28.33
2023-03-23T04:26:16.664Z,28.23
2023-03-23T04:30:16.623Z,28.18
2023-03-23T04:34:16.585Z,28.07
2023-03-23T04:38:16.554Z,28.10
2023-03-23T04:42:16.509Z,28.04
2023-03-23T04:46:16.480Z,27.95
2023-03-23T04:50:16.435Z,27.98
2023-03-23T04:54:16.373Z,27.97
2023-03-23T04:58:16.343Z,27.94
2023-03-23T05:02:16.306Z,27.88
2023-03-23T05:06:16.191Z,27.90
2023-03-23T05:10:16.109Z,27.88
2023-03-23T05:14:17.010Z,27.87
2023-03-23T05:18:15.887Z,27.90
2023-03-23T05:22:15.785Z,27.93
2023-03-23T05:26:15.673Z,27.85
2023-03-23T05:30:15.569Z,27.85
2023-03-23T05:34:15.476Z,27.85
2023-03-23T05:38:15.407Z,27.81
2023-03-23T05:42:15.362Z,27.88
2023-03-23T05:46:15.267Z,27.90
2023-03-23T05:50:15.209Z,27.88
2023-03-23T05:54:15.139Z,27.93
2023-03-23T05:58:15.072Z,27.91
2023-03-23T06:02:15.032Z,27.91
2023-03-23T06:06:14.985Z,27.87
2023-03-23T06:10:14.911Z,28.06
2023-03-23T06:14:14.858Z,27.95
2023-03-23T06:18:14.845Z,28.04
2023-03-23T06:22:14.799Z,28.38
2023-03-23T06:26:14.794Z,28.77
2023-03-23T06:30:14.883Z,29.66
2023-03-23T06:34:15.062Z,30.60
2023-03-23T06:38:15.241Z,31.46
2023-03-23T06:42:15.427Z,33.15
2023-03-23T06:46:15.489Z,32.75
2023-03-23T06:50:15.543Z,33.02
2023-03-23T06:54:15.591Z,33.99
2023-03-23T06:58:15.611Z,33.93
2023-03-23T07:02:15.702Z,35.36
2023-03-23T07:06:15.553Z,35.41
2023-03-23T07:10:15.453Z,35.64
2023-03-23T07:14:15.317Z,36.48
2023-03-23T07:18:15.174Z,38.34
2023-03-23T07:22:15.028Z,36.71
2023-03-23T07:26:14.861Z,37.18
2023-03-23T07:30:14.813Z,31.91
2023-03-23T07:34:14.690Z,31.15
2023-03-23T07:38:14.786Z,30.64
2023-03-23T07:42:14.469Z,29.00
2023-03-23T07:46:14.329Z,29.23
2023-03-23T07:50:14.194Z,29.74
2023-03-23T07:54:14.043Z,29.75
2023-03-23T07:58:13.951Z,29.99
2023-03-23T08:02:13.719Z,29.98
2023-03-23T08:06:13.565Z,29.85
2023-03-23T08:10:13.360Z,30.11
2023-03-23T08:14:13.906Z,29.51
2023-03-23T08:18:13.003Z,28.75
2023-03-23T08:22:12.836Z,29.67
2023-03-23T08:26:12.660Z,30.08
2023-03-23T08:30:12.479Z,30.74
2023-03-23T08:34:13.862Z,30.19
2023-03-23T08:38:12.125Z,30.25
2023-03-23T08:42:11.960Z,30.69
2023-03-23T08:46:11.771Z,30.82
2023-03-23T08:50:11.648Z,31.27
2023-03-23T08:54:11.435Z,31.41
2023-03-23T08:58:11.249Z,31.78
2023-03-23T09:02:11.070Z,31.70
2023-03-23T09:06:11.496Z,31.76
2023-03-23T09:10:11.103Z,31.61
2023-03-23T09:14:11.230Z,30.41
2023-03-23T09:18:11.204Z,29.85
2023-03-23T09:22:11.117Z,30.33
2023-03-23T09:26:11.124Z,30.66
2023-03-23T09:30:11.147Z,26.79
2023-03-23T09:34:11.164Z,27.22
2023-03-23T09:38:11.282Z,27.36
2023-03-23T09:42:11.333Z,28.07
2023-03-23T09:46:11.596Z,28.72
2023-03-23T09:50:11.155Z,29.35
2023-03-23T09:54:11.114Z,29.62
2023-03-23T09:58:11.110Z,30.10
2023-03-23T10:02:11.132Z,31.23
2023-03-23T10:06:11.062Z,30.97
2023-03-23T10:10:11.202Z,31.19
2023-03-23T10:14:11.222Z,31.72
2023-03-23T10:18:11.292Z,31.56
2023-03-23T10:22:11.331Z,31.62
2023-03-23T10:26:11.397Z,32.75
2023-03-23T10:30:11.470Z,32.75
2023-03-23T10:34:11.471Z,33.27
2023-03-23T10:38:11.535Z,34.31
2023-03-23T10:42:11.628Z,34.98
2023-03-23T10:46:15.526Z,35.98
2023-03-23T10:50:12.518Z,35.30
2023-03-23T10:54:11.361Z,35.42
2023-03-23T10:58:11.633Z,36.26
2023-03-23T11:02:15.643Z,37.10
2023-03-23T11:06:12.132Z,38.09
2023-03-23T11:10:11.139Z,36.81
2023-03-23T11:14:10.569Z,36.69
2023-03-23T11:18:10.558Z,36.71
2023-03-23T11:22:10.606Z,36.80
2023-03-23T11:26:10.404Z,36.82
2023-03-23T11:30:10.219Z,36.84
2023-03-23T11:34:10.034Z,36.84
2023-03-23T11:38:09.851Z,36.90
2023-03-23T11:42:09.814Z,36.81
2023-03-23T11:46:09.434Z,36.75
2023-03-23T11:50:09.227Z,36.73
2023-03-23T13:02:05.982Z,35.80
2023-03-23T13:30:05.924Z,35.74
2023-03-23T13:34:05.956Z,35.68
2023-03-23T13:38:05.976Z,35.62
2023-03-23T13:42:06.618Z,35.60
2023-03-23T13:46:06.089Z,35.45
2023-03-23T13:50:06.057Z,35.45
2023-03-23T13:54:06.101Z,35.32
2023-03-23T14:14:06.339Z,35.21
2023-03-23T14:18:06.384Z,35.19
2023-03-23T14:22:06.438Z,35.16
2023-03-23T14:26:06.713Z,35.08
2023-03-23T14:30:06.551Z,35.05
2023-03-23T14:34:06.713Z,35.02
2023-03-23T14:38:06.663Z,34.97
2023-03-23T14:42:06.722Z,34.95
2023-03-23T14:46:06.786Z,34.95
2023-03-23T14:50:06.897Z,34.93
2023-03-23T14:54:06.915Z,34.86
2023-03-23T15:06:07.124Z,34.82
2023-03-23T15:10:07.195Z,34.79
2023-03-23T15:14:07.373Z,34.77
2023-03-23T15:18:07.373Z,34.78
2023-03-23T15:26:07.554Z,34.77
2023-03-23T15:34:07.738Z,34.66
2023-03-23T15:58:08.286Z,34.49
2023-03-23T16:34:09.358Z,34.35
2023-03-23T16:38:09.487Z,34.36
2023-03-23T16:54:09.512Z,34.36
2023-03-23T16:58:17.152Z,34.36
2023-03-23T17:26:08.798Z,34.32
2023-03-23T17:30:08.637Z,34.28
2023-03-23T17:34:08.550Z,34.31
2023-03-23T17:38:08.469Z,34.29
2023-03-23T17:42:08.466Z,34.24
2023-03-23T17:58:08.143Z,34.21
2023-03-23T18:06:08.226Z,34.27
2023-03-23T18:22:08.835Z,34.21
2023-03-23T18:38:08.234Z,34.22
2023-03-23T19:14:07.512Z,34.11
2023-03-23T19:22:08.590Z,34.14
2023-03-23T19:38:08.095Z,34.04
2023-03-23T19:42:08.018Z,34.11
2023-03-23T19:50:07.957Z,34.08
2023-03-23T19:54:07.864Z,34.15
2023-03-23T20:18:07.551Z,33.96
2023-03-23T20:22:07.522Z,33.95
2023-03-23T20:26:07.510Z,33.98
2023-03-23T20:30:07.421Z,33.93
2023-03-23T20:46:07.171Z,33.84
2023-03-23T20:54:07.161Z,33.83
2023-03-23T20:58:07.082Z,33.83
2023-03-23T21:02:07.098Z,33.79
2023-03-23T21:06:06.946Z,33.82
2023-03-23T21:10:06.850Z,33.80
2023-03-23T21:14:06.795Z,33.73
2023-03-23T21:18:06.795Z,33.76
2023-03-23T21:22:06.756Z,33.76
2023-03-23T21:26:06.821Z,33.70
2023-03-23T21:30:06.926Z,33.73
2023-03-23T21:34:06.952Z,33.67
2023-03-23T21:38:07.004Z,33.70
2023-03-23T21:42:07.179Z,33.69
2023-03-23T21:46:07.108Z,33.66
2023-03-23T21:50:07.202Z,33.66
2023-03-23T21:54:07.178Z,33.58
2023-03-23T21:58:07.158Z,33.66
2023-03-23T22:02:07.225Z,33.61
2023-03-23T22:06:07.262Z,33.68
2023-03-23T22:10:07.446Z,33.64
2023-03-23T22:14:07.583Z,33.60
2023-03-23T22:18:07.653Z,33.54
2023-03-23T22:22:07.661Z,33.52
2023-03-23T22:26:07.634Z,33.54
2023-03-23T22:30:07.641Z,33.49
2023-03-23T22:34:07.699Z,33.49
2023-03-23T22:38:07.753Z,33.51
2023-03-23T22:42:07.753Z,33.51
2023-03-23T22:46:08.011Z,33.45
2023-03-23T22:50:07.888Z,33.47
2023-03-23T22:54:07.955Z,33.44
2023-03-23T22:58:08.033Z,33.40
2023-03-23T23:02:08.122Z,33.38
2023-03-23T23:06:08.051Z,33.44
2023-03-23T23:10:08.131Z,33.37
2023-03-23T23:14:08.232Z,33.40
2023-03-23T23:18:08.255Z,33.37
2023-03-23T23:22:18.542Z,33.36
2023-03-23T23:38:07.968Z,33.34
2023-03-23T23:42:07.873Z,33.27
2023-03-23T23:46:07.904Z,33.32
2023-03-23T23:50:07.805Z,33.35
2023-03-23T23:54:07.734Z,33.31
2023-03-23T23:58:07.680Z,33.29
